createdAt,value
2022-12-18T00:01:07.319Z,103039.00
2022-12-18T00:03:37.487Z,103037.22
2022-12-18T00:06:07.204Z,103036.31
2022-12-18T00:08:33.754Z,103030.22
2022-12-18T00:11:18.181Z,103018.16
2022-12-18T00:13:45.257Z,103016.47
2022-12-18T00:16:14.838Z,103013.88
2022-12-18T00:18:42.598Z,103024.25
2022-12-18T00:21:11.388Z,103023.41
2022-12-18T00:23:39.007Z,103021.66
2022-12-18T00:26:08.580Z,103025.13
2022-12-18T00:28:35.025Z,103025.09
2022-12-18T00:31:06.444Z,103028.56
2022-12-18T00:33:33.729Z,103024.19
2022-12-18T00:36:10.073Z,103018.16
2022-12-18T00:38:37.334Z,103016.41
2022-12-18T00:41:04.778Z,103025.94
2022-12-18T00:43:31.364Z,103013.81
2022-12-18T00:45:58.055Z,103017.25
2022-12-18T00:48:24.506Z,103019.84
2022-12-18T00:50:51.449Z,103020.75
2022-12-18T00:53:18.383Z,103019.88
2022-12-18T00:55:46.287Z,103024.19
2022-12-18T00:58:14.704Z,103017.25
2022-12-18T01:00:41.885Z,103013.81
2022-12-18T01:03:08.595Z,103019.84
2022-12-18T01:05:35.356Z,103012.91
2022-12-18T01:08:01.849Z,102997.31
2022-12-18T01:10:28.311Z,103005.09
2022-12-18T01:12:54.693Z,103003.31
2022-12-18T01:15:21.512Z,103006.75
2022-12-18T01:17:47.936Z,103006.75
2022-12-18T01:20:15.074Z,103007.63
2022-12-18T01:22:41.607Z,103011.94
2022-12-18T01:25:09.679Z,103017.97
2022-12-18T01:27:36.497Z,103013.63
2022-12-18T01:30:04.099Z,103027.44
2022-12-18T01:32:32.644Z,103032.63
2022-12-18T01:34:59.321Z,103041.25
2022-12-18T01:37:26.113Z,103032.63
2022-12-18T01:39:55.391Z,103036.97
2022-12-18T01:42:24.578Z,103035.22
2022-12-18T01:45:03.778Z,103037.81
2022-12-18T01:47:30.420Z,103036.97
2022-12-18T01:50:00.548Z,103037.81
2022-12-18T01:52:33.887Z,103036.06
2022-12-18T01:55:02.663Z,103035.16
2022-12-18T01:57:29.411Z,103031.72
2022-12-18T02:00:01.888Z,103031.72
2022-12-18T02:02:30.088Z,103033.44
2022-12-18T02:04:56.858Z,103043.84
2022-12-18T02:07:41.559Z,103046.44
2022-12-18T02:10:19.833Z,103043.81
2022-12-18T02:12:52.170Z,103048.13
2022-12-18T02:15:32.718Z,103039.44
2022-12-18T02:18:09.963Z,103036.84
2022-12-18T02:20:42.623Z,103035.13
2022-12-18T02:23:18.422Z,103046.34
2022-12-18T02:26:07.158Z,103035.97
2022-12-18T02:28:41.130Z,103047.19
2022-12-18T02:31:11.545Z,103048.91
2022-12-18T02:33:40.574Z,103047.19
2022-12-18T02:36:09.698Z,103044.59
2022-12-18T02:38:37.303Z,103031.59
2022-12-18T02:41:05.431Z,103033.34
2022-12-18T02:43:32.046Z,103047.19
2022-12-18T02:46:01.788Z,103028.13
2022-12-18T02:48:35.178Z,103016.00
2022-12-18T02:51:09.324Z,103020.34
2022-12-18T02:53:46.279Z,103024.63
2022-12-18T02:56:18.622Z,103020.34
2022-12-18T02:58:45.011Z,103019.44
2022-12-18T03:01:25.906Z,103016.84
2022-12-18T03:04:05.260Z,103016.84
2022-12-18T03:06:38.615Z,103015.09
2022-12-18T03:09:17.629Z,103005.56
2022-12-18T03:12:08.646Z,103006.44
2022-12-18T03:14:39.059Z,102998.63
2022-12-18T03:17:11.920Z,103000.34
2022-12-18T03:19:40.368Z,103000.31
2022-12-18T03:22:08.603Z,103003.78
2022-12-18T03:24:39.989Z,102992.53
2022-12-18T03:27:12.849Z,102994.25
2022-12-18T03:29:43.747Z,102988.22
2022-12-18T03:32:24.683Z,102993.41
2022-12-18T03:34:52.971Z,102982.13
2022-12-18T03:37:19.599Z,102976.94
2022-12-18T03:39:46.300Z,102980.38
2022-12-18T03:42:31.034Z,102977.78
2022-12-18T03:45:09.901Z,102971.75
2022-12-18T03:47:45.754Z,102964.81
2022-12-18T03:50:12.999Z,102970.00
2022-12-18T03:52:50.024Z,102969.16
2022-12-18T03:55:19.697Z,102966.56
2022-12-18T03:57:48.585Z,102965.72
2022-12-18T04:00:18.000Z,102965.72
2022-12-18T04:02:49.460Z,102960.53
2022-12-18T04:05:17.778Z,102969.16
2022-12-18T04:07:46.158Z,102962.28
2022-12-18T04:10:13.770Z,102957.94
2022-12-18T04:12:40.319Z,102956.22
2022-12-18T04:15:08.068Z,102947.56
2022-12-18T04:17:34.568Z,102941.53
2022-12-18T04:20:01.154Z,102938.94
2022-12-18T04:22:27.761Z,102936.34
2022-12-18T04:24:54.413Z,102935.50
2022-12-18T04:27:21.154Z,102936.34
2022-12-18T04:29:47.940Z,102936.34
2022-12-18T04:32:14.555Z,102937.19
2022-12-18T04:34:41.011Z,102930.28
2022-12-18T04:37:07.638Z,102932.91
2022-12-18T04:39:34.215Z,102936.34
2022-12-18T04:42:00.858Z,102932.06
2022-12-18T04:44:27.473Z,102939.84
2022-12-18T04:46:54.046Z,102949.34
2022-12-18T04:49:21.126Z,102956.25
2022-12-18T04:51:48.071Z,102954.50
2022-12-18T04:54:14.550Z,102964.06
2022-12-18T04:56:41.225Z,102966.66
2022-12-18T04:59:07.814Z,102969.28
2022-12-18T05:01:35.167Z,102975.34
2022-12-18T05:04:02.809Z,102971.88
2022-12-18T05:06:29.744Z,102972.75
2022-12-18T05:08:56.444Z,102982.28
2022-12-18T05:11:25.389Z,102984.88
2022-12-18T05:13:51.897Z,102985.72
2022-12-18T05:16:20.819Z,102984.00
2022-12-18T05:18:47.717Z,102985.72
2022-12-18T05:21:14.430Z,102994.41
2022-12-18T05:23:41.457Z,102999.59
2022-12-18T05:26:08.873Z,102989.22
2022-12-18T05:28:37.397Z,103003.09
2022-12-18T05:31:05.944Z,103006.53
2022-12-18T05:33:34.663Z,103017.81
2022-12-18T05:36:03.027Z,103011.78
2022-12-18T05:38:31.339Z,103012.63
2022-12-18T05:40:58.669Z,103001.41
2022-12-18T05:43:26.451Z,103002.25
2022-12-18T05:45:54.047Z,102989.28
2022-12-18T05:48:21.184Z,102984.09
2022-12-18T05:50:49.168Z,102986.69
2022-12-18T05:53:23.436Z,102979.75
2022-12-18T05:55:49.950Z,102977.16
2022-12-18T05:58:19.869Z,102974.56
2022-12-18T06:00:47.020Z,102977.16
2022-12-18T06:03:15.154Z,102969.34
2022-12-18T06:05:48.334Z,102970.19
2022-12-18T06:08:17.336Z,102974.50
2022-12-18T06:10:52.289Z,102973.66
2022-12-18T06:13:18.813Z,102964.13
2022-12-18T06:15:45.447Z,102957.25
2022-12-18T06:18:12.047Z,102957.22
2022-12-18T06:20:40.713Z,102958.94
2022-12-18T06:23:07.366Z,102952.00
2022-12-18T06:25:37.949Z,102954.59
2022-12-18T06:28:04.662Z,102952.00
2022-12-18T06:30:31.825Z,102947.66
2022-12-18T06:33:01.533Z,102957.19
2022-12-18T06:35:28.137Z,102938.16
2022-12-18T06:37:54.724Z,102936.41
2022-12-18T06:40:21.539Z,102938.13
2022-12-18T06:42:50.435Z,102930.34
2022-12-18T06:45:17.537Z,102928.63
2022-12-18T06:47:47.200Z,102932.94
2022-12-18T06:50:14.103Z,102924.28
2022-12-18T06:52:41.502Z,102916.50
2022-12-18T06:55:10.405Z,102913.91
2022-12-18T06:57:37.680Z,102914.75
2022-12-18T07:00:06.359Z,102909.56
2022-12-18T07:02:33.392Z,102909.56
2022-12-18T07:05:00.269Z,102907.81
2022-12-18T07:07:26.950Z,102902.63
2022-12-18T07:09:53.542Z,102900.03
2022-12-18T07:12:20.026Z,102900.03
2022-12-18T07:14:46.728Z,102900.88
2022-12-18T07:17:13.409Z,102895.69
2022-12-18T07:19:40.033Z,102884.47
2022-12-18T07:22:09.376Z,102887.91
2022-12-18T07:24:36.123Z,102898.28
2022-12-18T07:27:05.597Z,102895.69
2022-12-18T07:29:36.787Z,102901.72
2022-12-18T07:32:06.380Z,102887.84
2022-12-18T07:34:33.108Z,102877.47
2022-12-18T07:36:59.877Z,102877.47
2022-12-18T07:39:26.805Z,102870.59
2022-12-18T07:42:14.580Z,102871.44
2022-12-18T07:44:41.177Z,102870.47
2022-12-18T07:47:11.995Z,102862.63
2022-12-18T07:49:39.116Z,102855.63
2022-12-18T07:52:05.646Z,102853.00
2022-12-18T07:54:32.188Z,102852.94
2022-12-18T07:56:58.745Z,102844.25
2022-12-18T07:59:25.350Z,102846.78
2022-12-18T08:01:51.957Z,102849.28
2022-12-18T08:04:18.728Z,102845.78
2022-12-18T08:06:47.917Z,102856.91
2022-12-18T08:09:20.284Z,102837.88
2022-12-18T08:11:46.901Z,102829.16
2022-12-18T08:14:13.536Z,102829.09
2022-12-18T08:16:40.518Z,102824.75
2022-12-18T08:19:07.099Z,102835.91
2022-12-18T08:21:33.706Z,102845.34
2022-12-18T08:24:02.396Z,102843.53
2022-12-18T08:26:34.736Z,102843.44
2022-12-18T08:29:02.089Z,102845.16
2022-12-18T08:31:30.776Z,102862.38
2022-12-18T08:33:59.939Z,102872.72
2022-12-18T08:36:29.280Z,102866.69
2022-12-18T08:39:01.282Z,102861.53
2022-12-18T08:41:27.884Z,102868.41
2022-12-18T08:44:14.159Z,102867.56
2022-12-18T08:46:43.172Z,102849.44
2022-12-18T08:49:11.333Z,102841.66
2022-12-18T08:51:38.747Z,102858.06
2022-12-18T08:54:06.849Z,102857.19
2022-12-18T08:56:36.185Z,102849.44
2022-12-18T08:59:02.980Z,102850.34
2022-12-18T09:01:29.760Z,102852.06
2022-12-18T09:03:58.085Z,102867.59
2022-12-18T09:06:25.231Z,102876.25
2022-12-18T09:08:51.882Z,102865.91
2022-12-18T09:11:26.272Z,102865.91
2022-12-18T09:13:53.923Z,102848.69
2022-12-18T09:16:25.021Z,102851.25
2022-12-18T09:19:08.305Z,102855.56
2022-12-18T09:21:43.364Z,102846.13
2022-12-18T09:24:14.470Z,102847.88
2022-12-18T09:26:47.672Z,102853.94
2022-12-18T09:29:15.665Z,102854.78
2022-12-18T09:31:43.465Z,102852.22
2022-12-18T09:34:10.036Z,102855.69
2022-12-18T09:36:38.767Z,102843.59
2022-12-18T09:39:08.581Z,102835.00
2022-12-18T09:41:57.248Z,102829.81
2022-12-18T09:44:34.402Z,102828.97
2022-12-18T09:47:41.383Z,102824.66
2022-12-18T09:50:31.709Z,102820.38
2022-12-18T09:53:03.955Z,102818.66
2022-12-18T09:55:38.362Z,102804.84
2022-12-18T09:58:16.729Z,102795.41
2022-12-18T10:00:43.865Z,102800.59
2022-12-18T10:03:15.260Z,102807.47
2022-12-18T10:06:03.015Z,102801.41
2022-12-18T10:08:53.001Z,102805.69
2022-12-18T10:11:25.874Z,102804.84
2022-12-18T10:14:04.840Z,102791.84
2022-12-18T10:16:44.236Z,102792.72
2022-12-18T10:19:29.397Z,102784.94
2022-12-18T10:22:26.249Z,102791.81
2022-12-18T10:25:25.853Z,102791.81
2022-12-18T10:28:14.007Z,102791.81
2022-12-18T10:30:42.474Z,102796.09
2022-12-18T10:33:22.298Z,102798.66
2022-12-18T10:35:56.897Z,102777.13
2022-12-18T10:38:24.919Z,102767.59
2022-12-18T10:40:57.504Z,102775.38
2022-12-18T10:43:38.393Z,102789.16
2022-12-18T10:46:11.036Z,102784.81
2022-12-18T10:48:47.747Z,102770.19
2022-12-18T10:51:31.718Z,102762.41
2022-12-18T10:54:23.174Z,102755.50
2022-12-18T10:56:52.839Z,102758.06
2022-12-18T10:59:19.855Z,102760.69
2022-12-18T11:02:02.079Z,102746.00
2022-12-18T11:04:32.189Z,102744.31
2022-12-18T11:07:11.726Z,102739.97
2022-12-18T11:09:42.767Z,102738.22
2022-12-18T11:12:26.347Z,102735.63
2022-12-18T11:14:54.827Z,102730.44
2022-12-18T11:17:34.688Z,102726.94
2022-12-18T11:20:08.011Z,102720.06
2022-12-18T11:22:39.141Z,102718.34
2022-12-18T11:25:35.456Z,102714.09
2022-12-18T11:28:26.639Z,102701.19
2022-12-18T11:31:24.143Z,102696.00
2022-12-18T11:34:31.305Z,102697.78
2022-12-18T11:37:05.418Z,102706.44
2022-12-18T11:39:43.959Z,102711.66
2022-12-18T11:42:27.641Z,102705.63
2022-12-18T11:45:09.784Z,102711.69
2022-12-18T11:48:16.052Z,102703.09
2022-12-18T11:50:56.526Z,102701.38
2022-12-18T11:53:27.367Z,102694.47
2022-12-18T11:56:25.921Z,102684.97
2022-12-18T11:59:15.694Z,102680.69
2022-12-18T12:02:13.309Z,102674.66
2022-12-18T12:04:49.554Z,102673.81
2022-12-18T12:07:43.897Z,102669.50
2022-12-18T12:10:10.332Z,102652.28
2022-12-18T12:12:58.663Z,102651.41
2022-12-18T12:15:50.667Z,102644.56
2022-12-18T12:18:42.775Z,102641.13
2022-12-18T12:21:40.382Z,102635.94
2022-12-18T12:24:32.555Z,102642.03
2022-12-18T12:27:37.023Z,102630.81
2022-12-18T12:30:10.274Z,102624.72
2022-12-18T12:33:00.206Z,102629.91
2022-12-18T12:35:32.855Z,102624.72
2022-12-18T12:38:08.977Z,102617.84
2022-12-18T12:40:58.833Z,102617.84
2022-12-18T12:43:52.806Z,102613.56
2022-12-18T12:46:25.828Z,102601.47
2022-12-18T12:49:10.777Z,102602.34
2022-12-18T12:51:44.651Z,102592.88
2022-12-18T12:54:18.736Z,102586.00
2022-12-18T12:57:05.001Z,102581.66
2022-12-18T12:59:50.527Z,102582.56
2022-12-18T13:02:36.975Z,102580.84
2022-12-18T13:05:12.938Z,102588.63
2022-12-18T13:07:47.570Z,102579.09
2022-12-18T13:10:28.685Z,102580.84
2022-12-18T13:13:09.364Z,102580.03
2022-12-18T13:15:48.586Z,102586.91
2022-12-18T13:18:19.137Z,102580.03
2022-12-18T13:20:53.657Z,102581.78
2022-12-18T13:23:27.045Z,102580.88
2022-12-18T13:26:26.438Z,102580.03
2022-12-18T13:28:59.795Z,102579.19
2022-12-18T13:31:58.081Z,102569.69
2022-12-18T13:34:31.774Z,102567.09
2022-12-18T13:37:40.578Z,102561.91
2022-12-18T13:40:41.128Z,102570.53
2022-12-18T13:43:19.998Z,102553.25
2022-12-18T13:46:00.212Z,102548.06
2022-12-18T13:48:28.695Z,102540.28
2022-12-18T13:51:04.432Z,102537.69
2022-12-18T13:53:35.306Z,102523.03
2022-12-18T13:56:03.294Z,102522.16
2022-12-18T13:58:30.189Z,102518.69
2022-12-18T14:01:00.527Z,102525.63
2022-12-18T14:03:29.606Z,102514.38
2022-12-18T14:06:01.575Z,102521.28
2022-12-18T14:08:34.881Z,102518.69
2022-12-18T14:11:05.102Z,102505.75
2022-12-18T14:13:36.670Z,102507.50
2022-12-18T14:16:06.041Z,102509.19
2022-12-18T14:18:57.106Z,102489.34
2022-12-18T14:21:35.049Z,102500.56
2022-12-18T14:24:20.036Z,102491.94
2022-12-18T14:26:48.406Z,102489.34
2022-12-18T14:29:32.918Z,102482.44
2022-12-18T14:32:35.636Z,102479.84
2022-12-18T14:35:14.362Z,102469.47
2022-12-18T14:37:41.030Z,102472.91
2022-12-18T14:40:14.219Z,102469.47
2022-12-18T14:42:40.970Z,102469.50
2022-12-18T14:45:41.499Z,102475.53
2022-12-18T14:48:10.500Z,102469.47
2022-12-18T14:50:39.347Z,102462.59
2022-12-18T14:53:24.119Z,102448.75
2022-12-18T14:55:51.804Z,102449.59
2022-12-18T14:58:19.666Z,102455.66
2022-12-18T15:00:46.536Z,102454.78
2022-12-18T15:03:20.422Z,102453.91
2022-12-18T15:05:49.970Z,102450.47
2022-12-18T15:08:33.979Z,102447.88
2022-12-18T15:11:01.287Z,102456.53
2022-12-18T15:13:31.515Z,102451.34
2022-12-18T15:16:04.150Z,102436.63
2022-12-18T15:18:35.084Z,102440.97
2022-12-18T15:21:10.500Z,102438.38
2022-12-18T15:23:50.478Z,102441.84
2022-12-18T15:26:19.671Z,102434.91
2022-12-18T15:28:52.878Z,102440.09
2022-12-18T15:31:31.237Z,102440.09
2022-12-18T15:34:01.945Z,102433.19
2022-12-18T15:36:37.915Z,102437.50
2022-12-18T15:39:06.817Z,102434.91
2022-12-18T15:41:36.148Z,102436.63
2022-12-18T15:44:04.516Z,102445.28
2022-12-18T15:46:34.354Z,102441.84
2022-12-18T15:49:02.996Z,102441.81
2022-12-18T15:51:36.424Z,102434.91
2022-12-18T15:54:05.924Z,102431.44
2022-12-18T15:56:53.962Z,102420.19
2022-12-18T15:59:32.677Z,102418.50
2022-12-18T16:01:59.340Z,102406.38
2022-12-18T16:04:29.692Z,102404.66
2022-12-18T16:08:06.395Z,102402.94
2022-12-18T16:09:52.746Z,102397.75
2022-12-18T16:12:27.742Z,102393.41
2022-12-18T16:14:54.286Z,102394.28
2022-12-18T16:17:23.624Z,102389.09
2022-12-18T16:19:50.502Z,102382.19
2022-12-18T16:22:23.952Z,102379.56
2022-12-18T16:24:54.941Z,102358.81
2022-12-18T16:27:22.828Z,102378.69
2022-12-18T16:29:49.600Z,102362.25
2022-12-18T16:32:21.527Z,102356.22
2022-12-18T16:34:48.528Z,102346.69
2022-12-18T16:37:17.960Z,102340.66
2022-12-18T16:39:54.066Z,102343.25
2022-12-18T16:42:21.167Z,102341.50
2022-12-18T16:44:52.618Z,102334.63
2022-12-18T16:47:20.084Z,102331.13
2022-12-18T16:49:52.968Z,102343.25
2022-12-18T16:52:24.108Z,102331.13
2022-12-18T16:54:53.709Z,102332.03
2022-12-18T16:57:24.086Z,102333.72
2022-12-18T16:59:52.432Z,102323.34
2022-12-18T17:02:24.649Z,102326.84
2022-12-18T17:04:55.014Z,102316.44
2022-12-18T17:07:21.542Z,102322.50
2022-12-18T17:09:51.979Z,102323.34
2022-12-18T17:12:18.500Z,102325.94
2022-12-18T17:14:47.495Z,102327.69
2022-12-18T17:17:21.777Z,102330.28
2022-12-18T17:19:49.282Z,102332.03
2022-12-18T17:22:15.872Z,102332.88
2022-12-18T17:24:42.479Z,102329.41
2022-12-18T17:27:09.021Z,102320.75
2022-12-18T17:29:43.899Z,102327.69
2022-12-18T17:32:13.776Z,102325.09
2022-12-18T17:34:40.846Z,102314.69
2022-12-18T17:37:08.975Z,102327.69
2022-12-18T17:39:35.696Z,102325.94
2022-12-18T17:42:02.316Z,102329.41
2022-12-18T17:44:28.832Z,102325.09
2022-12-18T17:46:58.500Z,102324.19
2022-12-18T17:49:24.971Z,102327.69
2022-12-18T17:51:51.643Z,102329.41
2022-12-18T17:54:18.074Z,102333.72
2022-12-18T17:56:44.693Z,102329.41
2022-12-18T17:59:11.382Z,102326.81
2022-12-18T18:01:47.383Z,102319.88
2022-12-18T18:04:15.621Z,102310.38
2022-12-18T18:06:42.319Z,102323.34
2022-12-18T18:09:16.158Z,102322.47
2022-12-18T18:12:02.925Z,102323.34
2022-12-18T18:14:29.798Z,102330.25
2022-12-18T18:16:56.401Z,102328.53
2022-12-18T18:19:25.510Z,102321.59
2022-12-18T18:21:53.825Z,102321.59
2022-12-18T18:24:26.115Z,102325.06
2022-12-18T18:26:57.819Z,102323.34
2022-12-18T18:29:26.993Z,102326.78
2022-12-18T18:31:57.235Z,102322.47
2022-12-18T18:34:30.270Z,102316.41
2022-12-18T18:37:01.186Z,102312.06
2022-12-18T18:39:28.201Z,102306.88
2022-12-18T18:41:55.006Z,102309.47
2022-12-18T18:44:25.611Z,102312.94
2022-12-18T18:46:56.720Z,102309.50
2022-12-18T18:49:27.557Z,102322.47
2022-12-18T18:51:55.265Z,102307.72
2022-12-18T18:54:24.603Z,102297.34
2022-12-18T18:57:22.660Z,102291.31
2022-12-18T18:59:37.990Z,102298.25
2022-12-18T19:02:07.676Z,102294.78
2022-12-18T19:04:34.569Z,102299.13
2022-12-18T19:07:01.678Z,102297.38
2022-12-18T19:09:28.812Z,102293.91
2022-12-18T19:14:56.488Z,102284.38
2022-12-18T19:17:29.564Z,102289.56
2022-12-18T19:19:59.917Z,102296.50
2022-12-18T19:22:26.386Z,102293.03
2022-12-18T19:24:52.836Z,102294.75
2022-12-18T19:27:19.299Z,102291.28
2022-12-18T19:29:45.734Z,102291.28
2022-12-18T19:32:12.408Z,102286.97
2022-12-18T19:34:39.714Z,102285.25
2022-12-18T19:37:06.418Z,102284.34
2022-12-18T19:39:33.210Z,102299.06
2022-12-18T19:41:59.788Z,102293.91
2022-12-18T19:44:26.885Z,102300.78
2022-12-18T19:46:53.511Z,102297.34
2022-12-18T19:49:20.020Z,102302.56
2022-12-18T19:51:47.676Z,102294.75
2022-12-18T19:54:17.734Z,102299.94
2022-12-18T19:56:45.739Z,102295.63
2022-12-18T19:59:12.835Z,102297.34
2022-12-18T20:01:39.933Z,102293.91
2022-12-18T20:04:07.009Z,102291.28
2022-12-18T20:06:55.625Z,102284.38
2022-12-18T20:09:24.455Z,102283.50
2022-12-18T20:11:51.693Z,102279.16
2022-12-18T20:14:22.312Z,102287.84
2022-12-18T20:16:50.955Z,102283.50
2022-12-18T20:19:18.229Z,102289.53
2022-12-18T20:21:45.722Z,102287.81
2022-12-18T20:24:13.038Z,102286.94
2022-12-18T20:26:40.590Z,102285.22
2022-12-18T20:29:07.233Z,102299.94
2022-12-18T20:31:36.721Z,102294.75
2022-12-18T20:34:06.040Z,102285.19
2022-12-18T20:36:34.258Z,102284.34
2022-12-18T20:39:06.525Z,102286.94
2022-12-18T20:41:38.099Z,102279.13
2022-12-18T20:44:22.531Z,102271.38
2022-12-18T20:47:05.747Z,102271.34
2022-12-18T20:49:35.754Z,102270.47
2022-12-18T20:52:04.566Z,102270.47
2022-12-18T20:54:31.241Z,102271.38
2022-12-18T20:57:01.508Z,102267.91
2022-12-18T20:59:28.231Z,102260.97
2022-12-18T21:01:55.458Z,102256.66
2022-12-18T21:04:22.916Z,102251.47
2022-12-18T21:06:59.239Z,102245.41
2022-12-18T21:09:37.514Z,102228.94
2022-12-18T21:12:43.943Z,102231.56
2022-12-18T21:15:18.073Z,102229.81
2022-12-18T21:17:51.602Z,102222.03
2022-12-18T21:20:18.992Z,102222.88
2022-12-18T21:22:48.139Z,102226.34
2022-12-18T21:25:16.991Z,102222.88
2022-12-18T21:27:45.517Z,102226.34
2022-12-18T21:30:18.937Z,102216.84
2022-12-18T21:32:48.805Z,102208.19
2022-12-18T21:35:22.974Z,102204.72
2022-12-18T21:37:51.908Z,102200.38
2022-12-18T21:40:25.565Z,102206.47
2022-12-18T21:43:13.375Z,102203.84
2022-12-18T21:45:46.837Z,102208.19
2022-12-18T21:50:59.782Z,102192.59
2022-12-18T21:53:26.446Z,102196.06
2022-12-18T21:56:02.071Z,102196.06
2022-12-18T21:58:30.863Z,102190.88
2022-12-18T22:01:12.928Z,102166.63
2022-12-18T22:03:40.338Z,102158.84
2022-12-18T22:06:16.770Z,102170.97
2022-12-18T22:08:44.167Z,102165.78
2022-12-18T22:11:17.058Z,102157.97
2022-12-18T22:13:48.206Z,102155.38
2022-12-18T22:16:17.497Z,102156.25
2022-12-18T22:18:48.163Z,102151.06
2022-12-18T22:21:30.348Z,102150.22
2022-12-18T22:24:07.825Z,102140.72
2022-12-18T22:26:40.893Z,102136.38
2022-12-18T22:29:29.173Z,102122.56
2022-12-18T22:32:02.173Z,102106.09
2022-12-18T22:34:29.219Z,102106.09
2022-12-18T22:36:58.285Z,102096.59
2022-12-18T22:39:29.365Z,102087.09
2022-12-18T22:42:10.255Z,102075.81
2022-12-18T22:44:36.814Z,102071.47
2022-12-18T22:47:07.044Z,102061.94
2022-12-18T22:49:35.335Z,102062.81
2022-12-18T22:52:03.508Z,102067.13
2022-12-18T22:54:31.183Z,102060.22
2022-12-18T22:57:03.168Z,102061.94
2022-12-18T22:59:29.937Z,102058.50
2022-12-18T23:01:59.596Z,102064.56
2022-12-18T23:04:36.334Z,102060.22
2022-12-18T23:07:06.776Z,102059.34
2022-12-18T23:09:33.911Z,102052.44
2022-12-18T23:12:01.341Z,102035.13
2022-12-18T23:14:31.941Z,102024.75
2022-12-18T23:17:10.307Z,102022.97
2022-12-18T23:19:45.503Z,102013.47
2022-12-18T23:22:24.596Z,102016.97
2022-12-18T23:24:51.351Z,102022.13
2022-12-18T23:27:21.149Z,102042.06
2022-12-18T23:29:48.438Z,102026.47
2022-12-18T23:32:25.155Z,102023.88
2022-12-18T23:34:51.851Z,102015.19
2022-12-18T23:37:49.950Z,102017.78
2022-12-18T23:40:05.807Z,102002.22
2022-12-18T23:42:35.312Z,101991.84
2022-12-18T23:45:04.498Z,101983.16
2022-12-18T23:47:51.074Z,101969.31
2022-12-18T23:50:18.026Z,101974.53
2022-12-18T23:52:44.588Z,101977.97
2022-12-18T23:55:13.382Z,101985.75
2022-12-18T23:57:39.990Z,101992.66
